Grape Creek, Texas
Current Conditions -  °F | °C
As of 10:51 PM on Wednesday 26 Nov 2014 (Local Time) from KSJT Reporting Station
Clear Clear  
Wind Chill: 42°   Ceiling: Unl
Heat Index: 42°   Visibility: 10mi
Dew Point: 33°   Wind: 3mph
Humidity: 70%   Direction: 110°ESE
Pressure: 30.37"   Gusts: NA
Location:  31.5873°N, 100.522°W
Report Text: KSJT 270451Z AUTO 11003KT 10SM CLR 06/01 A3037 RMK AO2 SLP282 T00560006
Loading
Personal Weather Stations






























Interactive Weather Map New forecast layout! Learn more

10-Day Weather Forecast

Advertisements
Track Severe Weather on mobile